createdAt,value
2018-02-25T00:02:25.503Z,4.57
2018-02-25T00:04:52.967Z,4.43
2018-02-25T00:07:20.440Z,4.60
2018-02-25T00:09:48.629Z,3.77
2018-02-25T00:12:16.891Z,3.77
2018-02-25T00:14:44.404Z,4.50
2018-02-25T00:17:11.877Z,4.70
2018-02-25T00:19:39.385Z,4.53
2018-02-25T00:22:07.642Z,4.47
2018-02-25T00:24:35.142Z,3.97
2018-02-25T00:27:02.618Z,3.53
2018-02-25T00:29:30.081Z,4.03
2018-02-25T00:31:57.659Z,4.33
2018-02-25T00:34:25.129Z,5.40
2018-02-25T00:36:52.619Z,4.40
2018-02-25T00:39:20.854Z,3.73
2018-02-25T00:41:48.356Z,4.43
2018-02-25T00:44:16.759Z,4.23
2018-02-25T00:46:44.270Z,3.97
2018-02-25T00:49:11.735Z,5.23
2018-02-25T00:51:39.230Z,3.83
2018-02-25T00:54:06.722Z,3.60
2018-02-25T00:56:34.211Z,4.70
2018-02-25T00:59:01.687Z,7.70
2018-02-25T01:01:29.924Z,6.80
2018-02-25T01:03:57.387Z,6.47
2018-02-25T01:06:24.868Z,4.70
2018-02-25T01:08:52.343Z,5.90
2018-02-25T01:11:20.614Z,6.03
2018-02-25T01:13:48.888Z,6.10
2018-02-25T01:16:16.387Z,6.30
2018-02-25T01:18:43.902Z,5.80
2018-02-25T01:21:11.775Z,5.57
2018-02-25T01:23:40.066Z,4.60
2018-02-25T01:26:07.545Z,4.00
2018-02-25T01:28:35.025Z,4.87
2018-02-25T01:31:03.228Z,4.80
2018-02-25T01:33:30.761Z,4.30
2018-02-25T01:35:58.243Z,5.23
2018-02-25T01:38:25.866Z,4.87
2018-02-25T01:40:53.312Z,4.63
2018-02-25T01:43:20.804Z,5.00
2018-02-25T01:45:48.298Z,4.17
2018-02-25T01:48:16.568Z,3.90
2018-02-25T01:50:55.891Z,5.17
2018-02-25T01:53:23.366Z,3.67
2018-02-25T01:55:51.625Z,5.67
2018-02-25T01:58:19.116Z,5.50
2018-02-25T02:00:47.382Z,4.80
2018-02-25T02:03:15.642Z,4.80
2018-02-25T02:05:43.135Z,4.87
2018-02-25T02:08:11.382Z,6.00
2018-02-25T02:10:38.931Z,5.87
2018-02-25T02:13:06.406Z,6.00
2018-02-25T02:15:33.917Z,5.03
2018-02-25T02:18:01.423Z,4.13
2018-02-25T02:20:28.925Z,4.23
2018-02-25T02:22:56.396Z,5.00
2018-02-25T02:25:23.886Z,5.30
2018-02-25T02:27:51.382Z,5.57
2018-02-25T02:30:19.642Z,5.13
2018-02-25T02:32:47.184Z,5.90
2018-02-25T02:35:14.678Z,5.10
2018-02-25T02:37:42.971Z,4.53
2018-02-25T02:40:10.422Z,5.17
2018-02-25T02:42:37.908Z,5.57
2018-02-25T02:45:05.383Z,6.83
2018-02-25T02:47:32.861Z,5.13
2018-02-25T02:50:00.376Z,5.60
2018-02-25T02:52:27.846Z,4.93
2018-02-25T02:54:55.338Z,5.53
2018-02-25T02:57:22.814Z,5.30
2018-02-25T02:59:50.289Z,5.77
2018-02-25T03:02:17.773Z,6.40
2018-02-25T03:04:45.262Z,5.93
2018-02-25T03:07:12.728Z,6.17
2018-02-25T03:09:40.204Z,4.37
2018-02-25T03:12:08.458Z,5.40
2018-02-25T03:14:35.940Z,6.43
2018-02-25T03:17:04.161Z,5.80
2018-02-25T03:19:31.647Z,6.80
2018-02-25T03:21:59.161Z,6.30
2018-02-25T03:24:26.661Z,7.17
2018-02-25T03:26:54.122Z,6.83
2018-02-25T03:29:21.603Z,5.70
2018-02-25T03:31:49.851Z,6.83
2018-02-25T03:34:17.382Z,6.73
2018-02-25T03:36:44.848Z,5.57
2018-02-25T03:39:12.351Z,7.20
2018-02-25T03:41:39.806Z,6.10
2018-02-25T03:44:07.287Z,7.13
2018-02-25T03:46:35.515Z,6.40
2018-02-25T03:49:03.012Z,8.50
2018-02-25T03:51:31.268Z,8.23
2018-02-25T03:53:58.755Z,5.77
2018-02-25T03:56:26.997Z,6.83
2018-02-25T03:58:54.480Z,5.90
2018-02-25T04:01:22.715Z,6.73
2018-02-25T04:03:50.214Z,6.20
2018-02-25T04:06:18.446Z,6.90
2018-02-25T04:08:46.010Z,6.93
2018-02-25T04:11:13.480Z,6.60
2018-02-25T04:13:40.945Z,5.30
2018-02-25T04:16:08.423Z,6.03
2018-02-25T04:18:36.672Z,6.83
2018-02-25T04:21:04.584Z,6.47
2018-02-25T04:23:32.816Z,7.27
2018-02-25T04:26:00.305Z,5.50
2018-02-25T04:28:28.534Z,6.47
2018-02-25T04:30:56.020Z,7.20
2018-02-25T04:33:23.508Z,7.23
2018-02-25T04:35:51.742Z,5.77
2018-02-25T04:38:19.206Z,9.30
2018-02-25T04:40:46.700Z,5.70
2018-02-25T04:43:14.194Z,6.10
2018-02-25T04:45:41.658Z,5.77
2018-02-25T04:48:09.144Z,7.23
2018-02-25T04:50:37.517Z,5.97
2018-02-25T04:53:05.039Z,6.07
2018-02-25T04:55:32.537Z,7.27
2018-02-25T04:58:00.025Z,7.37
2018-02-25T05:00:28.272Z,6.53
2018-02-25T05:02:57.493Z,6.80
2018-02-25T05:05:24.938Z,7.37
2018-02-25T05:07:52.435Z,6.10
2018-02-25T05:10:19.890Z,6.30
2018-02-25T05:12:47.382Z,5.73
2018-02-25T05:15:14.854Z,7.47
2018-02-25T05:17:42.333Z,6.80
2018-02-25T05:20:09.792Z,6.80
2018-02-25T05:22:37.278Z,7.77
2018-02-25T05:25:04.764Z,7.07
2018-02-25T05:27:32.251Z,7.07
2018-02-25T05:29:59.731Z,6.03
2018-02-25T05:32:27.975Z,8.83
2018-02-25T05:34:55.434Z,4.57
2018-02-25T05:37:23.404Z,7.83
2018-02-25T05:39:50.874Z,6.37
2018-02-25T05:42:18.350Z,7.63
2018-02-25T05:44:45.847Z,8.77
2018-02-25T05:47:13.306Z,5.57
2018-02-25T05:49:40.778Z,6.20
2018-02-25T05:52:08.267Z,6.73
2018-02-25T05:54:35.738Z,6.63
2018-02-25T05:57:03.208Z,8.80
2018-02-25T05:59:31.453Z,7.80
2018-02-25T06:01:59.697Z,7.40
2018-02-25T06:04:27.185Z,6.73
2018-02-25T06:06:54.662Z,6.93
2018-02-25T06:09:22.186Z,7.13
2018-02-25T06:11:49.659Z,6.07
2018-02-25T06:14:17.184Z,5.10
2018-02-25T06:16:44.647Z,6.87
2018-02-25T06:19:12.107Z,8.60
2018-02-25T06:21:39.619Z,6.50
2018-02-25T06:24:07.881Z,7.63
2018-02-25T06:26:35.377Z,7.17
2018-02-25T06:29:02.888Z,8.30
2018-02-25T06:31:30.350Z,8.13
2018-02-25T06:33:57.854Z,8.83
2018-02-25T06:36:26.099Z,8.83
2018-02-25T06:38:53.579Z,11.23
2018-02-25T06:41:21.836Z,9.80
2018-02-25T06:43:49.315Z,9.57
2018-02-25T06:46:17.566Z,11.43
2018-02-25T06:48:45.081Z,8.63
2018-02-25T06:51:12.571Z,9.50
2018-02-25T06:53:40.059Z,6.03
2018-02-25T06:56:07.534Z,7.23
2018-02-25T06:58:35.779Z,9.23
2018-02-25T07:01:03.718Z,7.57
2018-02-25T07:03:31.195Z,6.63
2018-02-25T07:05:58.667Z,9.67
2018-02-25T07:08:26.179Z,7.57
2018-02-25T07:10:53.666Z,7.87
2018-02-25T07:13:21.166Z,7.97
2018-02-25T07:15:49.399Z,7.37
2018-02-25T07:18:16.887Z,9.60
2018-02-25T07:20:44.362Z,7.40
2018-02-25T07:23:12.626Z,6.90
2018-02-25T07:25:40.106Z,7.90
2018-02-25T07:28:08.346Z,9.00
2018-02-25T07:30:35.837Z,7.23
2018-02-25T07:33:04.116Z,6.77
2018-02-25T07:35:31.570Z,7.30
2018-02-25T07:37:59.838Z,9.10
2018-02-25T07:40:28.086Z,8.70
2018-02-25T07:42:55.571Z,9.10
2018-02-25T07:45:23.814Z,5.50
2018-02-25T07:47:51.280Z,7.93
2018-02-25T07:50:18.761Z,8.13
2018-02-25T07:52:46.233Z,9.83
2018-02-25T07:55:14.496Z,7.80
2018-02-25T07:57:41.981Z,9.70
2018-02-25T08:00:09.490Z,10.43
2018-02-25T08:02:36.983Z,11.33
2018-02-25T08:05:05.218Z,9.80
2018-02-25T08:07:32.802Z,10.23
2018-02-25T08:10:00.359Z,7.93
2018-02-25T08:12:27.945Z,11.60
2018-02-25T08:14:56.259Z,8.13
2018-02-25T08:17:23.832Z,10.30
2018-02-25T08:19:51.315Z,8.80
2018-02-25T08:22:18.795Z,9.33
2018-02-25T08:24:46.280Z,9.30
2018-02-25T08:27:13.826Z,8.83
2018-02-25T08:29:41.349Z,9.13
2018-02-25T08:32:08.852Z,8.87
2018-02-25T08:34:36.336Z,8.57
2018-02-25T08:37:03.838Z,7.90
2018-02-25T08:39:31.328Z,8.27
2018-02-25T08:41:58.858Z,8.50
2018-02-25T08:44:26.346Z,9.97
2018-02-25T08:46:53.825Z,9.70
2018-02-25T08:49:22.138Z,7.83
2018-02-25T08:51:49.653Z,7.57
2018-02-25T08:54:17.118Z,7.97
2018-02-25T08:56:44.607Z,8.57
2018-02-25T08:59:12.074Z,8.17
2018-02-25T09:01:39.569Z,7.27
2018-02-25T09:04:07.822Z,7.70
2018-02-25T09:06:35.296Z,7.33
2018-02-25T09:09:03.631Z,7.47
2018-02-25T09:11:31.087Z,7.57
2018-02-25T09:13:58.577Z,7.00
2018-02-25T09:16:26.038Z,8.00
2018-02-25T09:18:53.556Z,6.73
2018-02-25T09:21:21.059Z,7.60
2018-02-25T09:23:48.526Z,8.17
2018-02-25T09:26:16.773Z,7.50
2018-02-25T09:28:44.255Z,7.50
2018-02-25T09:31:12.519Z,8.97
2018-02-25T09:33:40.039Z,7.67
2018-02-25T09:36:07.513Z,6.87
2018-02-25T09:38:34.990Z,7.50
2018-02-25T09:41:02.492Z,6.77
2018-02-25T09:43:30.015Z,7.17
2018-02-25T09:45:57.460Z,6.60
2018-02-25T09:48:25.368Z,7.30
2018-02-25T09:50:53.604Z,7.60
2018-02-25T09:53:21.135Z,7.60
2018-02-25T09:55:48.620Z,6.63
2018-02-25T09:58:16.090Z,6.13
2018-02-25T10:00:43.592Z,6.13
2018-02-25T10:03:11.046Z,6.80
2018-02-25T10:05:38.610Z,6.70
2018-02-25T10:08:06.079Z,7.93
2018-02-25T10:10:33.566Z,5.97
2018-02-25T10:13:01.038Z,7.57
2018-02-25T10:15:28.502Z,8.73
2018-02-25T10:17:55.979Z,5.50
2018-02-25T10:20:24.267Z,7.20
2018-02-25T10:22:52.496Z,7.20
2018-02-25T10:25:19.997Z,7.37
2018-02-25T10:27:48.213Z,8.27
2018-02-25T10:30:15.682Z,6.90
2018-02-25T10:32:43.187Z,7.30
2018-02-25T10:35:10.637Z,7.47
2018-02-25T10:37:38.880Z,6.87
2018-02-25T10:40:06.344Z,5.80
2018-02-25T10:42:33.840Z,6.93
2018-02-25T10:45:01.313Z,7.13
2018-02-25T10:47:28.823Z,7.37
2018-02-25T10:49:56.294Z,5.90
2018-02-25T10:52:23.767Z,6.07
2018-02-25T10:54:52.003Z,6.50
2018-02-25T10:57:19.493Z,6.70
2018-02-25T10:59:47.851Z,5.97
2018-02-25T11:02:15.336Z,6.20
2018-02-25T11:04:43.571Z,6.17
2018-02-25T11:07:11.044Z,7.23
2018-02-25T11:09:38.513Z,7.40
2018-02-25T11:12:05.971Z,6.50
2018-02-25T11:14:33.611Z,7.90
2018-02-25T11:17:01.076Z,6.17
2018-02-25T11:19:28.544Z,5.60
2018-02-25T11:21:56.028Z,6.43
2018-02-25T11:24:24.385Z,7.50
2018-02-25T11:26:51.875Z,8.23
2018-02-25T11:29:20.123Z,6.63
2018-02-25T11:31:47.687Z,6.90
2018-02-25T11:34:15.954Z,7.90
2018-02-25T11:36:44.207Z,6.80
2018-02-25T11:39:11.681Z,6.40
2018-02-25T11:41:39.151Z,7.00
2018-02-25T11:44:07.415Z,6.63
2018-02-25T11:46:34.931Z,6.17
2018-02-25T11:49:02.412Z,6.40
2018-02-25T11:51:29.886Z,6.10
2018-02-25T11:53:57.373Z,5.63
2018-02-25T11:56:25.678Z,6.10
2018-02-25T11:58:53.160Z,6.00
2018-02-25T12:01:20.790Z,6.97
2018-02-25T12:03:49.014Z,6.50
2018-02-25T12:06:16.643Z,6.80
2018-02-25T12:08:44.108Z,5.60
2018-02-25T12:11:11.915Z,6.80
2018-02-25T12:13:40.491Z,6.07
2018-02-25T12:16:07.970Z,7.40
2018-02-25T12:18:35.430Z,7.90
2018-02-25T12:21:04.024Z,6.47
2018-02-25T12:23:32.253Z,5.53
2018-02-25T12:25:59.822Z,7.40
2018-02-25T12:28:27.294Z,5.87
2018-02-25T12:30:55.553Z,7.03
2018-02-25T12:33:23.493Z,5.90
2018-02-25T12:35:51.858Z,6.97
2018-02-25T12:38:20.262Z,6.10
2018-02-25T12:40:47.730Z,5.33
2018-02-25T12:43:15.560Z,6.40
2018-02-25T12:45:43.946Z,5.33
2018-02-25T12:48:11.430Z,6.77
2018-02-25T12:50:38.930Z,6.70
2018-02-25T12:53:06.459Z,5.53
2018-02-25T12:55:33.942Z,6.20
2018-02-25T12:58:02.214Z,5.30
2018-02-25T13:00:29.690Z,6.57
2018-02-25T13:02:57.221Z,6.60
2018-02-25T13:05:24.717Z,6.10
2018-02-25T13:07:52.970Z,6.93
2018-02-25T13:10:20.443Z,6.07
2018-02-25T13:12:47.910Z,6.10
2018-02-25T13:15:16.175Z,5.60
2018-02-25T13:17:43.659Z,5.80
2018-02-25T13:20:11.915Z,6.30
2018-02-25T13:22:39.380Z,3.97
2018-02-25T13:25:07.622Z,5.60
2018-02-25T13:27:35.091Z,5.80
2018-02-25T13:30:02.630Z,6.23
2018-02-25T13:32:30.101Z,6.57
2018-02-25T13:34:58.587Z,5.50
2018-02-25T13:37:26.084Z,5.80
2018-02-25T13:39:54.307Z,5.10
2018-02-25T13:42:21.807Z,6.07
2018-02-25T13:44:50.089Z,5.90
2018-02-25T13:47:18.537Z,5.30
2018-02-25T13:49:45.934Z,5.07
2018-02-25T13:52:14.170Z,5.97
2018-02-25T13:54:41.708Z,5.07
2018-02-25T13:57:09.328Z,5.57
2018-02-25T13:59:37.582Z,4.57
2018-02-25T14:02:05.844Z,5.27
2018-02-25T14:04:33.319Z,5.87
2018-02-25T14:07:00.829Z,5.23
2018-02-25T14:09:28.303Z,4.67
2018-02-25T14:11:55.776Z,4.20
2018-02-25T14:14:23.272Z,5.20
2018-02-25T14:16:51.567Z,5.40
2018-02-25T14:19:19.865Z,5.13
2018-02-25T14:21:47.350Z,5.70
2018-02-25T14:24:14.941Z,4.83
2018-02-25T14:26:43.190Z,5.07
2018-02-25T14:29:10.702Z,4.00
2018-02-25T14:31:38.176Z,4.30
2018-02-25T14:34:05.651Z,4.87
2018-02-25T14:36:33.117Z,5.53
2018-02-25T14:39:00.601Z,4.77
2018-02-25T14:41:28.186Z,5.47
2018-02-25T14:43:55.716Z,4.80
2018-02-25T14:46:23.189Z,4.20
2018-02-25T14:48:51.449Z,4.87
2018-02-25T14:51:18.919Z,5.73
2018-02-25T14:53:46.392Z,6.77
2018-02-25T14:56:14.619Z,5.10
2018-02-25T14:58:42.076Z,5.40
2018-02-25T15:01:10.027Z,5.10
2018-02-25T15:03:37.771Z,6.43
2018-02-25T15:06:05.237Z,6.83
2018-02-25T15:08:32.722Z,6.77
2018-02-25T15:11:00.795Z,6.93
2018-02-25T15:13:28.840Z,6.23
2018-02-25T15:15:56.333Z,6.10
2018-02-25T15:18:23.808Z,5.73
2018-02-25T15:20:51.356Z,6.10
2018-02-25T15:23:18.823Z,6.10
2018-02-25T15:25:46.479Z,6.50
2018-02-25T15:28:13.966Z,6.10
2018-02-25T15:30:41.456Z,6.27
2018-02-25T15:33:08.945Z,5.83
2018-02-25T15:35:36.430Z,7.80
2018-02-25T15:38:03.883Z,4.67
2018-02-25T15:40:31.378Z,5.70
2018-02-25T15:42:59.611Z,5.80
2018-02-25T15:45:27.087Z,6.60
2018-02-25T15:47:54.587Z,6.73
2018-02-25T15:50:22.164Z,5.80
2018-02-25T15:52:49.644Z,6.07
2018-02-25T15:55:17.237Z,6.47
2018-02-25T15:57:45.493Z,6.70
2018-02-25T16:00:12.956Z,5.97
2018-02-25T16:02:40.438Z,6.27
2018-02-25T16:05:08.143Z,5.70
2018-02-25T16:07:35.642Z,5.53
2018-02-25T16:10:03.181Z,5.70
2018-02-25T16:12:30.651Z,4.57
2018-02-25T16:14:58.895Z,5.60
2018-02-25T16:17:26.394Z,5.87
2018-02-25T16:19:53.855Z,5.40
2018-02-25T16:22:21.483Z,5.47
2018-02-25T16:24:49.009Z,5.40
2018-02-25T16:27:17.562Z,5.30
2018-02-25T16:29:45.241Z,4.93
2018-02-25T16:32:13.479Z,5.60
2018-02-25T16:34:40.966Z,4.50
2018-02-25T16:37:09.212Z,5.47
2018-02-25T16:39:36.700Z,5.47
2018-02-25T16:42:04.476Z,5.10
2018-02-25T16:44:31.986Z,4.23
2018-02-25T16:46:59.516Z,5.97
2018-02-25T16:49:27.230Z,5.53
2018-02-25T16:51:54.726Z,4.03
2018-02-25T16:54:22.978Z,4.77
2018-02-25T16:56:50.454Z,4.53
2018-02-25T16:59:18.715Z,5.00
2018-02-25T17:01:46.192Z,4.20
2018-02-25T17:04:15.306Z,5.30
2018-02-25T17:06:42.780Z,5.30
2018-02-25T17:09:11.144Z,4.60
2018-02-25T17:11:38.801Z,5.10
2018-02-25T17:14:06.294Z,3.93
2018-02-25T17:16:33.781Z,4.60
2018-02-25T17:19:01.296Z,5.13
2018-02-25T17:21:29.025Z,4.80
2018-02-25T17:23:57.271Z,5.40
2018-02-25T17:26:25.246Z,4.63
2018-02-25T17:28:52.721Z,4.27
2018-02-25T17:31:20.952Z,4.50
2018-02-25T17:33:48.678Z,5.67
2018-02-25T17:36:16.149Z,4.77
2018-02-25T17:38:43.680Z,5.27
2018-02-25T17:41:11.555Z,4.03
2018-02-25T17:43:39.821Z,4.63
2018-02-25T17:46:08.094Z,4.53
2018-02-25T17:48:35.624Z,4.67
2018-02-25T17:51:03.995Z,4.17
2018-02-25T17:53:31.496Z,4.60
2018-02-25T17:55:58.983Z,4.23
2018-02-25T17:58:26.473Z,4.53
2018-02-25T18:00:53.978Z,4.33
2018-02-25T18:03:22.262Z,4.70
2018-02-25T18:05:50.492Z,5.17
2018-02-25T18:08:18.011Z,4.70
2018-02-25T18:10:45.489Z,4.20
2018-02-25T18:13:12.972Z,4.63
2018-02-25T18:15:40.493Z,3.97
2018-02-25T18:18:08.496Z,4.73
2018-02-25T18:20:36.776Z,5.53
2018-02-25T18:23:04.419Z,4.90
2018-02-25T18:25:31.896Z,5.10
2018-02-25T18:27:59.365Z,4.90
2018-02-25T18:30:26.838Z,4.30
2018-02-25T18:32:54.366Z,4.43
2018-02-25T18:35:21.852Z,5.10
2018-02-25T18:37:50.850Z,5.40
2018-02-25T18:40:19.139Z,5.10
2018-02-25T18:42:47.430Z,4.33
2018-02-25T18:45:15.737Z,4.73
2018-02-25T18:47:43.966Z,5.00
2018-02-25T18:50:11.459Z,4.60
2018-02-25T18:52:38.941Z,4.87
2018-02-25T18:55:06.424Z,5.10
2018-02-25T18:57:33.893Z,4.73
2018-02-25T19:00:02.253Z,5.30
2018-02-25T19:02:29.747Z,5.40
2018-02-25T19:04:57.995Z,4.37
2018-02-25T19:07:26.269Z,4.63
2018-02-25T19:09:54.646Z,5.97
2018-02-25T19:12:22.131Z,6.50
2018-02-25T19:14:50.394Z,6.53
2018-02-25T19:17:17.884Z,5.73
2018-02-25T19:19:46.123Z,5.57
2018-02-25T19:22:13.699Z,4.43
2018-02-25T19:24:41.176Z,4.90
2018-02-25T19:27:08.650Z,4.77
2018-02-25T19:29:36.758Z,6.47
2018-02-25T19:32:05.024Z,5.70
2018-02-25T19:34:32.525Z,5.50
2018-02-25T19:37:05.904Z,6.00
2018-02-25T19:39:38.992Z,4.70
2018-02-25T19:42:13.459Z,4.60
2018-02-25T19:44:40.953Z,5.10
2018-02-25T19:47:08.437Z,5.23
2018-02-25T19:49:35.929Z,4.53
2018-02-25T19:52:04.171Z,5.67
2018-02-25T19:54:31.743Z,5.57
2018-02-25T19:56:59.426Z,5.60
2018-02-25T19:59:28.240Z,4.73
2018-02-25T20:01:56.686Z,5.10
2018-02-25T20:04:24.513Z,5.23
2018-02-25T20:06:52.120Z,5.17
2018-02-25T20:09:20.391Z,4.70
2018-02-25T20:11:48.202Z,4.67
2018-02-25T20:14:15.704Z,4.70
2018-02-25T20:16:43.414Z,5.20
2018-02-25T20:19:10.947Z,5.57
2018-02-25T20:21:38.838Z,4.60
2018-02-25T20:24:07.313Z,5.40
2018-02-25T20:26:34.912Z,4.60
2018-02-25T20:29:02.375Z,3.97
2018-02-25T20:31:30.100Z,4.90
2018-02-25T20:33:59.062Z,4.30
2018-02-25T20:36:26.606Z,4.10
2018-02-25T20:38:54.313Z,4.00
2018-02-25T20:41:23.610Z,3.40
2018-02-25T20:43:51.172Z,3.50
2018-02-25T20:46:18.650Z,4.57
2018-02-25T20:48:46.944Z,3.77
2018-02-25T20:51:14.617Z,4.87
2018-02-25T20:53:42.276Z,4.10
2018-02-25T20:56:10.883Z,4.27
2018-02-25T20:58:38.380Z,4.00
2018-02-25T21:01:05.866Z,4.27
2018-02-25T21:03:33.823Z,4.43
2018-02-25T21:06:01.471Z,4.13
2018-02-25T21:08:31.460Z,4.10
2018-02-25T21:10:58.948Z,3.53
2018-02-25T21:13:26.557Z,3.83
2018-02-25T21:15:56.222Z,4.50
2018-02-25T21:18:23.989Z,4.90
2018-02-25T21:20:51.624Z,4.80
2018-02-25T21:23:19.136Z,3.47
2018-02-25T21:25:46.612Z,4.80
2018-02-25T21:28:14.249Z,4.60
2018-02-25T21:30:41.738Z,4.90
2018-02-25T21:33:09.229Z,5.70
2018-02-25T21:35:37.345Z,3.80
2018-02-25T21:38:04.887Z,3.70
2018-02-25T21:40:33.117Z,4.33
2018-02-25T21:43:00.589Z,3.60
2018-02-25T21:45:28.084Z,4.17
2018-02-25T21:47:55.742Z,3.90
2018-02-25T21:50:23.266Z,3.90
2018-02-25T21:52:51.404Z,4.60
2018-02-25T21:55:18.884Z,4.60
2018-02-25T21:57:51.963Z,4.53
2018-02-25T22:00:25.145Z,3.90
2018-02-25T22:02:58.390Z,4.70
2018-02-25T22:05:25.868Z,4.83
2018-02-25T22:07:54.098Z,3.77
2018-02-25T22:10:21.731Z,4.80
2018-02-25T22:12:49.209Z,4.30
2018-02-25T22:15:16.712Z,4.17
2018-02-25T22:17:44.803Z,4.23
2018-02-25T22:20:12.841Z,4.03
2018-02-25T22:22:40.381Z,3.83
2018-02-25T22:25:07.858Z,4.17
2018-02-25T22:27:35.479Z,3.80
2018-02-25T22:30:02.929Z,3.20
2018-02-25T22:32:30.400Z,4.67
2018-02-25T22:34:57.905Z,4.50
2018-02-25T22:37:25.378Z,3.43
2018-02-25T22:39:52.875Z,4.20
2018-02-25T22:42:20.394Z,4.33
2018-02-25T22:44:47.864Z,4.10
2018-02-25T22:47:16.107Z,3.77
2018-02-25T22:49:43.590Z,3.30
2018-02-25T22:52:11.076Z,4.00
2018-02-25T22:54:38.530Z,4.00
2018-02-25T22:57:06.778Z,4.90
2018-02-25T22:59:34.246Z,4.30
2018-02-25T23:02:02.517Z,4.90
2018-02-25T23:04:30.757Z,4.23
2018-02-25T23:06:58.274Z,5.07
2018-02-25T23:09:26.534Z,5.00
2018-02-25T23:11:54.785Z,4.00
2018-02-25T23:14:22.301Z,3.80
2018-02-25T23:16:49.775Z,3.80
2018-02-25T23:19:17.273Z,4.00
2018-02-25T23:21:44.747Z,4.97
2018-02-25T23:24:12.219Z,5.10
2018-02-25T23:26:40.456Z,4.53
2018-02-25T23:29:07.937Z,4.20
2018-02-25T23:31:35.415Z,4.90
2018-02-25T23:34:03.642Z,4.20
2018-02-25T23:36:31.143Z,4.10
2018-02-25T23:38:59.399Z,6.20
2018-02-25T23:41:26.914Z,5.00
2018-02-25T23:43:54.400Z,4.83
2018-02-25T23:46:21.875Z,5.50
2018-02-25T23:48:49.358Z,4.60
2018-02-25T23:51:17.608Z,5.20
2018-02-25T23:53:45.083Z,5.70
2018-02-25T23:56:13.322Z,4.53
2018-02-25T23:58:40.821Z,4.80
